sensor_id;sensor_type;location;lat;lon;timestamp;pressure;altitude;pressure_sealevel;temperature;humidity
84310;BME280;74488;49.036;11.472;2024-02-21T00:00:15;98269.09;;;5.72;78.66
84310;BME280;74488;49.036;11.472;2024-02-21T00:01:17;98271.78;;;5.71;79.03
84310;BME280;74488;49.036;11.472;2024-02-21T00:02:19;98263.03;;;5.67;79.18
84310;BME280;74488;49.036;11.472;2024-02-21T00:03:20;98264.88;;;5.65;79.07
84310;BME280;74488;49.036;11.472;2024-02-21T00:04:22;98253.50;;;5.62;79.19
84310;BME280;74488;49.036;11.472;2024-02-21T00:05:23;98263.81;;;5.71;79.14
84310;BME280;74488;49.036;11.472;2024-02-21T00:06:25;98237.66;;;5.60;78.86
84310;BME280;74488;49.036;11.472;2024-02-21T00:07:27;98267.34;;;5.71;78.74
84310;BME280;74488;49.036;11.472;2024-02-21T00:08:29;98267.28;;;5.73;78.68
84310;BME280;74488;49.036;11.472;2024-02-21T00:09:30;98261.19;;;5.71;78.90
84310;BME280;74488;49.036;11.472;2024-02-21T00:10:32;98256.81;;;5.70;78.98
84310;BME280;74488;49.036;11.472;2024-02-21T00:11:34;98256.91;;;5.67;79.58
84310;BME280;74488;49.036;11.472;2024-02-21T00:12:35;98255.16;;;5.66;79.45
84310;BME280;74488;49.036;11.472;2024-02-21T00:13:37;98252.56;;;5.64;79.71
84310;BME280;74488;49.036;11.472;2024-02-21T00:14:39;98255.25;;;5.63;79.59
84310;BME280;74488;49.036;11.472;2024-02-21T00:15:40;98251.78;;;5.61;79.19
84310;BME280;74488;49.036;11.472;2024-02-21T00:16:42;98251.81;;;5.59;80.05
84310;BME280;74488;49.036;11.472;2024-02-21T00:17:44;98226.59;;;5.46;80.02
84310;BME280;74488;49.036;11.472;2024-02-21T00:18:46;98226.69;;;5.43;79.45
84310;BME280;74488;49.036;11.472;2024-02-21T00:19:47;98250.03;;;5.60;79.56
84310;BME280;74488;49.036;11.472;2024-02-21T00:20:49;98238.75;;;5.53;79.53
84310;BME280;74488;49.036;11.472;2024-02-21T00:21:50;98240.50;;;5.54;79.53
84310;BME280;74488;49.036;11.472;2024-02-21T00:22:52;98243.94;;;5.56;79.18
84310;BME280;74488;49.036;11.472;2024-02-21T00:23:53;98236.00;;;5.56;79.01
84310;BME280;74488;49.036;11.472;2024-02-21T00:24:55;98241.97;;;5.64;78.87
84310;BME280;74488;49.036;11.472;2024-02-21T00:25:56;98242.78;;;5.66;78.60
84310;BME280;74488;49.036;11.472;2024-02-21T00:26:58;98240.06;;;5.69;78.73
84310;BME280;74488;49.036;11.472;2024-02-21T00:28:00;98241.69;;;5.73;78.33
84310;BME280;74488;49.036;11.472;2024-02-21T00:29:01;98227.69;;;5.70;78.33
84310;BME280;74488;49.036;11.472;2024-02-21T00:30:06;98232.66;;;5.80;78.22
84310;BME280;74488;49.036;11.472;2024-02-21T00:31:07;98232.56;;;5.83;78.10
84310;BME280;74488;49.036;11.472;2024-02-21T00:32:09;98231.63;;;5.86;77.94
84310;BME280;74488;49.036;11.472;2024-02-21T00:33:10;98222.06;;;5.80;78.20
84310;BME280;74488;49.036;11.472;2024-02-21T00:34:12;98225.59;;;5.81;78.34
84310;BME280;74488;49.036;11.472;2024-02-21T00:35:14;98232.50;;;5.87;78.22
84310;BME280;74488;49.036;11.472;2024-02-21T00:36:16;98219.50;;;5.77;78.19
84310;BME280;74488;49.036;11.472;2024-02-21T00:37:18;98228.25;;;5.81;78.20
84310;BME280;74488;49.036;11.472;2024-02-21T00:38:19;98222.16;;;5.77;78.22
84310;BME280;74488;49.036;11.472;2024-02-21T00:39:21;98231.88;;;5.77;78.26
84310;BME280;74488;49.036;11.472;2024-02-21T00:40:23;98229.28;;;5.75;78.09
84310;BME280;74488;49.036;11.472;2024-02-21T00:41:24;98215.19;;;5.73;78.11
84310;BME280;74488;49.036;11.472;2024-02-21T00:42:26;98222.34;;;5.71;78.33
84310;BME280;74488;49.036;11.472;2024-02-21T00:43:27;98214.56;;;5.65;78.68
84310;BME280;74488;49.036;11.472;2024-02-21T00:44:29;98222.47;;;5.67;78.84
84310;BME280;74488;49.036;11.472;2024-02-21T00:45:30;98220.66;;;5.67;78.62
84310;BME280;74488;49.036;11.472;2024-02-21T00:46:32;98217.22;;;5.65;78.58
84310;BME280;74488;49.036;11.472;2024-02-21T00:47:33;98219.03;;;5.63;78.69
84310;BME280;74488;49.036;11.472;2024-02-21T00:48:35;98220.88;;;5.61;78.81
84310;BME280;74488;49.036;11.472;2024-02-21T00:49:37;98219.13;;;5.60;78.80
84310;BME280;74488;49.036;11.472;2024-02-21T00:50:38;98218.25;;;5.60;78.96
84310;BME280;74488;49.036;11.472;2024-02-21T00:51:40;98221.81;;;5.59;78.94
84310;BME280;74488;49.036;11.472;2024-02-21T00:52:42;98215.75;;;5.55;79.13
84310;BME280;74488;49.036;11.472;2024-02-21T00:53:43;98222.78;;;5.56;79.12
84310;BME280;74488;49.036;11.472;2024-02-21T00:54:45;98221.94;;;5.56;79.04
84310;BME280;74488;49.036;11.472;2024-02-21T00:55:54;98223.66;;;5.57;78.89
84310;BME280;74488;49.036;11.472;2024-02-21T00:56:58;98189.63;;;5.43;79.27
84310;BME280;74488;49.036;11.472;2024-02-21T00:57:59;98206.97;;;5.53;79.23
84310;BME280;74488;49.036;11.472;2024-02-21T00:59:01;98220.13;;;5.56;79.14
84310;BME280;74488;49.036;11.472;2024-02-21T01:00:03;98211.34;;;5.56;79.17
84310;BME280;74488;49.036;11.472;2024-02-21T01:01:05;98216.56;;;5.57;78.93
84310;BME280;74488;49.036;11.472;2024-02-21T01:02:06;98217.38;;;5.59;79.12
84310;BME280;74488;49.036;11.472;2024-02-21T01:03:08;98220.09;;;5.58;79.08
84310;BME280;74488;49.036;11.472;2024-02-21T01:04:09;98190.53;;;5.42;78.84
84310;BME280;74488;49.036;11.472;2024-02-21T01:05:11;98212.97;;;5.60;78.93
84310;BME280;74488;49.036;11.472;2024-02-21T01:06:13;98174.75;;;5.39;79.09
84310;BME280;74488;49.036;11.472;2024-02-21T01:07:15;98205.16;;;5.55;79.15
84310;BME280;74488;49.036;11.472;2024-02-21T01:08:16;98199.78;;;5.58;79.05
84310;BME280;74488;49.036;11.472;2024-02-21T01:09:18;98209.50;;;5.58;79.01
84310;BME280;74488;49.036;11.472;2024-02-21T01:10:19;98199.88;;;5.55;79.22
84310;BME280;74488;49.036;11.472;2024-02-21T01:11:21;98201.69;;;5.53;79.42
84310;BME280;74488;49.036;11.472;2024-02-21T01:12:23;98202.53;;;5.55;79.33
84310;BME280;74488;49.036;11.472;2024-02-21T01:13:24;98203.44;;;5.54;79.34
84310;BME280;74488;49.036;11.472;2024-02-21T01:14:26;98198.13;;;5.54;79.49
84310;BME280;74488;49.036;11.472;2024-02-21T01:15:27;98200.78;;;5.54;79.47
84310;BME280;74488;49.036;11.472;2024-02-21T01:16:29;98193.78;;;5.52;79.41
84310;BME280;74488;49.036;11.472;2024-02-21T01:17:30;98192.84;;;5.54;79.49
84310;BME280;74488;49.036;11.472;2024-02-21T01:18:33;98191.16;;;5.52;79.65
84310;BME280;74488;49.036;11.472;2024-02-21T01:19:35;98195.47;;;5.54;79.47
84310;BME280;74488;49.036;11.472;2024-02-21T01:20:36;98201.69;;;5.53;79.48
84310;BME280;74488;49.036;11.472;2024-02-21T01:21:38;98195.53;;;5.53;79.71
84310;BME280;74488;49.036;11.472;2024-02-21T01:22:39;98202.63;;;5.52;79.84
84310;BME280;74488;49.036;11.472;2024-02-21T01:23:41;98177.22;;;5.45;79.67
84310;BME280;74488;49.036;11.472;2024-02-21T01:24:42;98192.94;;;5.51;79.83
84310;BME280;74488;49.036;11.472;2024-02-21T01:25:44;98159.03;;;5.35;79.70
84310;BME280;74488;49.036;11.472;2024-02-21T01:26:46;98187.72;;;5.48;80.18
84310;BME280;74488;49.036;11.472;2024-02-21T01:27:48;98186.03;;;5.46;80.24
84310;BME280;74488;49.036;11.472;2024-02-21T01:28:49;98187.72;;;5.48;80.15
84310;BME280;74488;49.036;11.472;2024-02-21T01:29:51;98176.34;;;5.45;80.29
84310;BME280;74488;49.036;11.472;2024-02-21T01:30:52;98176.31;;;5.46;80.26
84310;BME280;74488;49.036;11.472;2024-02-21T01:31:54;98173.66;;;5.46;80.46
84310;BME280;74488;49.036;11.472;2024-02-21T01:32:55;98189.56;;;5.46;80.30
84310;BME280;74488;49.036;11.472;2024-02-21T01:33:57;98183.38;;;5.46;80.54
84310;BME280;74488;49.036;11.472;2024-02-21T01:34:59;98180.72;;;5.47;80.41
84310;BME280;74488;49.036;11.472;2024-02-21T01:36:02;98175.44;;;5.46;80.31
84310;BME280;74488;49.036;11.472;2024-02-21T01:37:04;98177.19;;;5.47;80.38
84310;BME280;74488;49.036;11.472;2024-02-21T01:38:08;98171.91;;;5.47;80.66
84310;BME280;74488;49.036;11.472;2024-02-21T01:39:09;98175.41;;;5.47;80.49
84310;BME280;74488;49.036;11.472;2024-02-21T01:40:11;98176.25;;;5.48;80.43
84310;BME280;74488;49.036;11.472;2024-02-21T01:41:13;98178.00;;;5.49;80.37
84310;BME280;74488;49.036;11.472;2024-02-21T01:42:14;98177.09;;;5.50;79.88
84310;BME280;74488;49.036;11.472;2024-02-21T01:43:17;98173.59;;;5.49;80.20
84310;BME280;74488;49.036;11.472;2024-02-21T01:44:20;98167.31;;;5.52;80.11
84310;BME280;74488;49.036;11.472;2024-02-21T01:45:21;98155.97;;;5.48;80.26
84310;BME280;74488;49.036;11.472;2024-02-21T01:46:24;98163.00;;;5.49;80.16
84310;BME280;74488;49.036;11.472;2024-02-21T01:47:30;98159.44;;;5.50;80.20
84310;BME280;74488;49.036;11.472;2024-02-21T01:48:31;98158.50;;;5.51;80.01
84310;BME280;74488;49.036;11.472;2024-02-21T01:49:33;98161.16;;;5.51;80.06
84310;BME280;74488;49.036;11.472;2024-02-21T01:50:35;98146.16;;;5.52;80.13
84310;BME280;74488;49.036;11.472;2024-02-21T01:51:38;98145.38;;;5.48;80.00
84310;BME280;74488;49.036;11.472;2024-02-21T01:52:42;98105.41;;;5.28;80.13
84310;BME280;74488;49.036;11.472;2024-02-21T01:53:45;98150.56;;;5.51;79.98
84310;BME280;74488;49.036;11.472;2024-02-21T01:54:47;98143.56;;;5.50;80.19
84310;BME280;74488;49.036;11.472;2024-02-21T01:55:49;98146.31;;;5.47;80.15
84310;BME280;74488;49.036;11.472;2024-02-21T01:56:51;98142.78;;;5.47;80.38
84310;BME280;74488;49.036;11.472;2024-02-21T01:57:53;98132.41;;;5.39;80.24
84310;BME280;74488;49.036;11.472;2024-02-21T01:58:55;98138.47;;;5.43;80.68
84310;BME280;74488;49.036;11.472;2024-02-21T01:59:57;98136.75;;;5.42;80.59
84310;BME280;74488;49.036;11.472;2024-02-21T02:00:59;98137.69;;;5.39;80.80
84310;BME280;74488;49.036;11.472;2024-02-21T02:02:00;98133.25;;;5.41;80.53
84310;BME280;74488;49.036;11.472;2024-02-21T02:03:03;98127.94;;;5.41;80.56
84310;BME280;74488;49.036;11.472;2024-02-21T02:04:06;98134.00;;;5.45;80.73
84310;BME280;74488;49.036;11.472;2024-02-21T02:05:08;98138.53;;;5.41;80.43
84310;BME280;74488;49.036;11.472;2024-02-21T02:06:09;98137.59;;;5.42;80.99
84310;BME280;74488;49.036;11.472;2024-02-21T02:07:11;98137.56;;;5.44;80.88
84310;BME280;74488;49.036;11.472;2024-02-21T02:08:17;98127.94;;;5.41;80.91
84310;BME280;74488;49.036;11.472;2024-02-21T02:09:19;98137.59;;;5.42;80.91
84310;BME280;74488;49.036;11.472;2024-02-21T02:10:21;98130.63;;;5.40;81.22
84310;BME280;74488;49.036;11.472;2024-02-21T02:11:22;98085.59;;;5.12;80.81
84310;BME280;74488;49.036;11.472;2024-02-21T02:12:25;98127.16;;;5.38;80.93
84310;BME280;74488;49.036;11.472;2024-02-21T02:13:26;98119.38;;;5.33;81.06
84310;BME280;74488;49.036;11.472;2024-02-21T02:14:28;98123.56;;;5.40;81.12
84310;BME280;74488;49.036;11.472;2024-02-21T02:15:44;98121.69;;;5.44;81.00
84310;BME280;74488;49.036;11.472;2024-02-21T02:16:46;98089.53;;;5.28;80.54
84310;BME280;74488;49.036;11.472;2024-02-21T02:17:49;98119.00;;;5.45;80.74
84310;BME280;74488;49.036;11.472;2024-02-21T02:18:51;98117.28;;;5.44;80.70
84310;BME280;74488;49.036;11.472;2024-02-21T02:19:52;98118.25;;;5.42;80.78
84310;BME280;74488;49.036;11.472;2024-02-21T02:20:54;98116.50;;;5.41;80.99
84310;BME280;74488;49.036;11.472;2024-02-21T02:22:04;98100.00;;;5.31;80.91
84310;BME280;74488;49.036;11.472;2024-02-21T02:23:12;98110.41;;;5.37;80.69
84310;BME280;74488;49.036;11.472;2024-02-21T02:24:15;98113.88;;;5.39;80.78
84310;BME280;74488;49.036;11.472;2024-02-21T02:25:17;98122.75;;;5.38;80.71
84310;BME280;74488;49.036;11.472;2024-02-21T02:26:19;98109.53;;;5.38;80.87
84310;BME280;74488;49.036;11.472;2024-02-21T02:27:20;98118.28;;;5.40;80.81
84310;BME280;74488;49.036;11.472;2024-02-21T02:28:24;98108.56;;;5.41;80.88
84310;BME280;74488;49.036;11.472;2024-02-21T02:29:26;98101.59;;;5.37;80.74
84310;BME280;74488;49.036;11.472;2024-02-21T02:30:27;98113.78;;;5.42;80.57
84310;BME280;74488;49.036;11.472;2024-02-21T02:31:29;98098.22;;;5.33;80.98
84310;BME280;74488;49.036;11.472;2024-02-21T02:32:30;98103.19;;;5.42;80.91
84310;BME280;74488;49.036;11.472;2024-02-21T02:33:32;98102.38;;;5.42;80.95
84310;BME280;74488;49.036;11.472;2024-02-21T02:34:34;98110.25;;;5.43;81.04
84310;BME280;74488;49.036;11.472;2024-02-21T02:35:35;98104.94;;;5.43;81.04
84310;BME280;74488;49.036;11.472;2024-02-21T02:36:37;98110.25;;;5.43;81.12
84310;BME280;74488;49.036;11.472;2024-02-21T02:37:39;98110.25;;;5.43;80.91
84310;BME280;74488;49.036;11.472;2024-02-21T02:38:40;98107.59;;;5.43;80.97
84310;BME280;74488;49.036;11.472;2024-02-21T02:39:42;98102.38;;;5.42;80.93
84310;BME280;74488;49.036;11.472;2024-02-21T02:40:43;98108.56;;;5.41;81.02
84310;BME280;74488;49.036;11.472;2024-02-21T02:41:45;98115.53;;;5.43;81.02
84310;BME280;74488;49.036;11.472;2024-02-21T02:42:46;98109.38;;;5.43;80.73
84310;BME280;74488;49.036;11.472;2024-02-21T02:43:50;98096.19;;;5.41;80.79
84310;BME280;74488;49.036;11.472;2024-02-21T02:44:51;98111.13;;;5.44;80.90
84310;BME280;74488;49.036;11.472;2024-02-21T02:45:53;98109.34;;;5.44;80.57
84310;BME280;74488;49.036;11.472;2024-02-21T02:46:55;98110.16;;;5.46;80.83
84310;BME280;74488;49.036;11.472;2024-02-21T02:47:56;98102.25;;;5.45;80.98
84310;BME280;74488;49.036;11.472;2024-02-21T02:48:58;98112.00;;;5.43;81.13
84310;BME280;74488;49.036;11.472;2024-02-21T02:50:00;98108.50;;;5.42;81.16
84310;BME280;74488;49.036;11.472;2024-02-21T02:51:02;98115.53;;;5.43;80.84
84310;BME280;74488;49.036;11.472;2024-02-21T02:52:04;98105.03;;;5.40;81.22
84310;BME280;74488;49.036;11.472;2024-02-21T02:53:06;98108.56;;;5.41;80.97
84310;BME280;74488;49.036;11.472;2024-02-21T02:54:07;98100.78;;;5.36;81.23
84310;BME280;74488;49.036;11.472;2024-02-21T02:55:09;98108.56;;;5.41;81.27
84310;BME280;74488;49.036;11.472;2024-02-21T02:56:16;98103.28;;;5.39;81.43
84310;BME280;74488;49.036;11.472;2024-02-21T02:57:18;98103.28;;;5.39;81.37
84310;BME280;74488;49.036;11.472;2024-02-21T02:58:19;98098.13;;;5.36;81.36
84310;BME280;74488;49.036;11.472;2024-02-21T02:59:21;98105.00;;;5.42;81.11
84310;BME280;74488;49.036;11.472;2024-02-21T03:00:22;98097.06;;;5.42;80.95
84310;BME280;74488;49.036;11.472;2024-02-21T03:01:24;98101.50;;;5.41;81.15
84310;BME280;74488;49.036;11.472;2024-02-21T03:02:26;98097.91;;;5.42;81.50
84310;BME280;74488;49.036;11.472;2024-02-21T03:03:27;98097.91;;;5.42;81.19
84310;BME280;74488;49.036;11.472;2024-02-21T03:04:29;98091.88;;;5.39;81.17
84310;BME280;74488;49.036;11.472;2024-02-21T03:05:30;98063.38;;;5.19;81.31
84310;BME280;74488;49.036;11.472;2024-02-21T03:06:32;98091.88;;;5.39;81.24
84310;BME280;74488;49.036;11.472;2024-02-21T03:07:34;98098.00;;;5.39;81.20
84310;BME280;74488;49.036;11.472;2024-02-21T03:08:36;98089.22;;;5.39;81.33
84310;BME280;74488;49.036;11.472;2024-02-21T03:09:38;98092.72;;;5.39;81.34
84310;BME280;74488;49.036;11.472;2024-02-21T03:10:39;98091.81;;;5.40;81.38
84310;BME280;74488;49.036;11.472;2024-02-21T03:11:42;98089.16;;;5.40;81.69
84310;BME280;74488;49.036;11.472;2024-02-21T03:12:45;98091.72;;;5.43;81.30
84310;BME280;74488;49.036;11.472;2024-02-21T03:13:47;98089.97;;;5.42;81.58
84310;BME280;74488;49.036;11.472;2024-02-21T03:14:49;98081.19;;;5.42;81.21
84310;BME280;74488;49.036;11.472;2024-02-21T03:15:50;98092.63;;;5.42;81.35
84310;BME280;74488;49.036;11.472;2024-02-21T03:16:52;98078.63;;;5.39;81.33
84310;BME280;74488;49.036;11.472;2024-02-21T03:17:53;98083.78;;;5.43;81.36
84310;BME280;74488;49.036;11.472;2024-02-21T03:18:55;98091.72;;;5.43;81.78
84310;BME280;74488;49.036;11.472;2024-02-21T03:19:56;98078.47;;;5.43;81.51
84310;BME280;74488;49.036;11.472;2024-02-21T03:20:58;98077.59;;;5.43;81.40
84310;BME280;74488;49.036;11.472;2024-02-21T03:22:00;98074.97;;;5.43;81.50
84310;BME280;74488;49.036;11.472;2024-02-21T03:23:01;98077.50;;;5.46;81.54
84310;BME280;74488;49.036;11.472;2024-02-21T03:24:03;98072.19;;;5.47;81.34
84310;BME280;74488;49.036;11.472;2024-02-21T03:25:05;98071.22;;;5.50;81.15
84310;BME280;74488;49.036;11.472;2024-02-21T03:26:08;98067.63;;;5.52;80.94
84310;BME280;74488;49.036;11.472;2024-02-21T03:27:09;98070.25;;;5.52;81.07
84310;BME280;74488;49.036;11.472;2024-02-21T03:28:11;98067.66;;;5.51;81.19
84310;BME280;74488;49.036;11.472;2024-02-21T03:29:14;98069.44;;;5.50;81.17
84310;BME280;74488;49.036;11.472;2024-02-21T03:30:15;98063.41;;;5.45;81.21
84310;BME280;74488;49.036;11.472;2024-02-21T03:31:17;98064.25;;;5.47;81.21
84310;BME280;74488;49.036;11.472;2024-02-21T03:32:18;98075.69;;;5.48;81.29
84310;BME280;74488;49.036;11.472;2024-02-21T03:33:20;98066.91;;;5.47;80.91
84310;BME280;74488;49.036;11.472;2024-02-21T03:34:22;98065.16;;;5.46;81.01
84310;BME280;74488;49.036;11.472;2024-02-21T03:35:24;98058.19;;;5.44;81.40
84310;BME280;74488;49.036;11.472;2024-02-21T03:36:27;98069.66;;;5.43;81.59
84310;BME280;74488;49.036;11.472;2024-02-21T03:37:29;98062.66;;;5.42;81.59
84310;BME280;74488;49.036;11.472;2024-02-21T03:38:30;98062.59;;;5.43;81.71
84310;BME280;74488;49.036;11.472;2024-02-21T03:39:32;98071.34;;;5.45;81.67
84310;BME280;74488;49.036;11.472;2024-02-21T03:40:34;98072.22;;;5.46;81.35
84310;BME280;74488;49.036;11.472;2024-02-21T03:41:35;98075.78;;;5.45;81.54
84310;BME280;74488;49.036;11.472;2024-02-21T03:42:37;98041.97;;;5.25;81.35
84310;BME280;74488;49.036;11.472;2024-02-21T03:43:39;98073.13;;;5.45;81.51
84310;BME280;74488;49.036;11.472;2024-02-21T03:44:41;98070.53;;;5.43;81.12
84310;BME280;74488;49.036;11.472;2024-02-21T03:45:42;98073.19;;;5.43;81.35
84310;BME280;74488;49.036;11.472;2024-02-21T03:46:44;98077.56;;;5.44;81.75
84310;BME280;74488;49.036;11.472;2024-02-21T03:47:45;98069.53;;;5.47;81.73
84310;BME280;74488;49.036;11.472;2024-02-21T03:48:47;98077.50;;;5.47;81.08
84310;BME280;74488;49.036;11.472;2024-02-21T03:49:49;98067.72;;;5.49;81.36
84310;BME280;74488;49.036;11.472;2024-02-21T03:50:51;98065.16;;;5.46;81.39
84310;BME280;74488;49.036;11.472;2024-02-21T03:51:52;98063.28;;;5.50;81.09
84310;BME280;74488;49.036;11.472;2024-02-21T03:52:54;98066.75;;;5.52;81.16
84310;BME280;74488;49.036;11.472;2024-02-21T03:53:56;98065.78;;;5.54;80.84
84310;BME280;74488;49.036;11.472;2024-02-21T03:54:57;98061.34;;;5.55;80.96
84310;BME280;74488;49.036;11.472;2024-02-21T03:56:02;98058.72;;;5.55;80.97
84310;BME280;74488;49.036;11.472;2024-02-21T03:57:05;98067.38;;;5.60;80.78
84310;BME280;74488;49.036;11.472;2024-02-21T03:58:07;98065.50;;;5.63;80.48
84310;BME280;74488;49.036;11.472;2024-02-21T03:59:09;98069.81;;;5.66;80.34
84310;BME280;74488;49.036;11.472;2024-02-21T04:00:11;98061.81;;;5.67;80.41
84310;BME280;74488;49.036;11.472;2024-02-21T04:01:15;98068.16;;;5.62;80.17
84310;BME280;74488;49.036;11.472;2024-02-21T04:02:17;98065.59;;;5.60;80.40
84310;BME280;74488;49.036;11.472;2024-02-21T04:03:18;98062.94;;;5.60;80.35
84310;BME280;74488;49.036;11.472;2024-02-21T04:04:21;98030.13;;;5.38;80.37
84310;BME280;74488;49.036;11.472;2024-02-21T04:05:23;98059.59;;;5.54;80.79
84310;BME280;74488;49.036;11.472;2024-02-21T04:06:24;98025.06;;;5.31;80.71
84310;BME280;74488;49.036;11.472;2024-02-21T04:07:26;98062.03;;;5.61;80.41
84310;BME280;74488;49.036;11.472;2024-02-21T04:08:27;98053.25;;;5.59;80.26
84310;BME280;74488;49.036;11.472;2024-02-21T04:09:29;98055.91;;;5.59;80.27
84310;BME280;74488;49.036;11.472;2024-02-21T04:10:30;98059.38;;;5.61;80.28
84310;BME280;74488;49.036;11.472;2024-02-21T04:11:32;98054.03;;;5.63;80.24
84310;BME280;74488;49.036;11.472;2024-02-21T04:12:34;98048.78;;;5.61;80.26
84310;BME280;74488;49.036;11.472;2024-02-21T04:13:35;98049.72;;;5.59;80.55
84310;BME280;74488;49.036;11.472;2024-02-21T04:14:37;98048.06;;;5.56;80.20
84310;BME280;74488;49.036;11.472;2024-02-21T04:15:38;98051.53;;;5.58;80.65
84310;BME280;74488;49.036;11.472;2024-02-21T04:16:40;98048.81;;;5.60;80.34
84310;BME280;74488;49.036;11.472;2024-02-21T04:17:42;98052.34;;;5.60;80.63
84310;BME280;74488;49.036;11.472;2024-02-21T04:18:44;98046.88;;;5.66;80.09
84310;BME280;74488;49.036;11.472;2024-02-21T04:19:45;98048.72;;;5.63;80.37
84310;BME280;74488;49.036;11.472;2024-02-21T04:20:47;98051.28;;;5.66;80.15
84310;BME280;74488;49.036;11.472;2024-02-21T04:21:48;98046.78;;;5.68;79.96
84310;BME280;74488;49.036;11.472;2024-02-21T04:22:50;98039.72;;;5.68;79.87
84310;BME280;74488;49.036;11.472;2024-02-21T04:23:51;98043.19;;;5.70;80.10
84310;BME280;74488;49.036;11.472;2024-02-21T04:24:53;98045.81;;;5.70;79.91
84310;BME280;74488;49.036;11.472;2024-02-21T04:25:55;98041.41;;;5.71;79.79
84310;BME280;74488;49.036;11.472;2024-02-21T04:26:56;98042.22;;;5.73;79.55
84310;BME280;74488;49.036;11.472;2024-02-21T04:27:58;98039.56;;;5.73;79.54
84310;BME280;74488;49.036;11.472;2024-02-21T04:28:59;98035.19;;;5.72;79.53
84310;BME280;74488;49.036;11.472;2024-02-21T04:30:01;98018.72;;;5.64;79.41
84310;BME280;74488;49.036;11.472;2024-02-21T04:31:03;98018.91;;;5.58;79.81
84310;BME280;74488;49.036;11.472;2024-02-21T04:32:05;98032.56;;;5.72;79.72
84310;BME280;74488;49.036;11.472;2024-02-21T04:33:06;98036.09;;;5.71;79.57
84310;BME280;74488;49.036;11.472;2024-02-21T04:34:08;98031.69;;;5.71;79.52
84310;BME280;74488;49.036;11.472;2024-02-21T04:35:10;98033.53;;;5.69;79.73
84310;BME280;74488;49.036;11.472;2024-02-21T04:36:11;98030.69;;;5.75;79.40
84310;BME280;74488;49.036;11.472;2024-02-21T04:37:13;98033.25;;;5.77;79.35
84310;BME280;74488;49.036;11.472;2024-02-21T04:38:15;98029.91;;;5.72;79.32
84310;BME280;74488;49.036;11.472;2024-02-21T04:39:16;98031.78;;;5.68;79.36
84310;BME280;74488;49.036;11.472;2024-02-21T04:40:18;98029.09;;;5.70;79.44
84310;BME280;74488;49.036;11.472;2024-02-21T04:41:19;98030.91;;;5.68;79.72
84310;BME280;74488;49.036;11.472;2024-02-21T04:42:21;98025.72;;;5.65;79.54
84310;BME280;74488;49.036;11.472;2024-02-21T04:43:22;98025.81;;;5.62;79.73
84310;BME280;74488;49.036;11.472;2024-02-21T04:44:24;98024.97;;;5.61;79.98
84310;BME280;74488;49.036;11.472;2024-02-21T04:45:25;98024.88;;;5.64;79.82
84310;BME280;74488;49.036;11.472;2024-02-21T04:46:27;98016.94;;;5.64;79.52
84310;BME280;74488;49.036;11.472;2024-02-21T04:47:28;98017.94;;;5.60;79.73
84310;BME280;74488;49.036;11.472;2024-02-21T04:48:30;98018.75;;;5.62;79.73
84310;BME280;74488;49.036;11.472;2024-02-21T04:49:31;98012.63;;;5.60;79.75
84310;BME280;74488;49.036;11.472;2024-02-21T04:50:33;98007.16;;;5.66;79.83
84310;BME280;74488;49.036;11.472;2024-02-21T04:51:35;98009.63;;;5.71;79.15
84310;BME280;74488;49.036;11.472;2024-02-21T04:52:38;98017.44;;;5.75;78.95
84310;BME280;74488;49.036;11.472;2024-02-21T04:53:39;98019.34;;;5.70;79.15
84310;BME280;74488;49.036;11.472;2024-02-21T04:54:41;98016.94;;;5.64;79.47
84310;BME280;74488;49.036;11.472;2024-02-21T04:55:42;98014.28;;;5.64;79.48
84310;BME280;74488;49.036;11.472;2024-02-21T04:56:44;98009.09;;;5.61;79.56
84310;BME280;74488;49.036;11.472;2024-02-21T04:57:46;98008.13;;;5.64;79.39
84310;BME280;74488;49.036;11.472;2024-02-21T04:58:47;98007.25;;;5.63;79.46
84310;BME280;74488;49.036;11.472;2024-02-21T04:59:49;98003.72;;;5.63;79.40
84310;BME280;74488;49.036;11.472;2024-02-21T05:00:50;97995.75;;;5.64;79.57
84310;BME280;74488;49.036;11.472;2024-02-21T05:01:52;97993.91;;;5.66;79.37
84310;BME280;74488;49.036;11.472;2024-02-21T05:02:54;97998.28;;;5.67;79.42
84310;BME280;74488;49.036;11.472;2024-02-21T05:03:56;97992.88;;;5.70;79.17
84310;BME280;74488;49.036;11.472;2024-02-21T05:04:57;97974.69;;;5.60;79.16
84310;BME280;74488;49.036;11.472;2024-02-21T05:05:59;97987.81;;;5.64;79.19
84310;BME280;74488;49.036;11.472;2024-02-21T05:07:01;97994.72;;;5.68;79.03
84310;BME280;74488;49.036;11.472;2024-02-21T05:08:03;97997.44;;;5.67;79.16
84310;BME280;74488;49.036;11.472;2024-02-21T05:09:05;97994.63;;;5.71;79.04
84310;BME280;74488;49.036;11.472;2024-02-21T05:10:07;97991.25;;;5.66;79.33
84310;BME280;74488;49.036;11.472;2024-02-21T05:11:09;97995.53;;;5.70;78.86
84310;BME280;74488;49.036;11.472;2024-02-21T05:12:11;97993.84;;;5.68;78.83
84310;BME280;74488;49.036;11.472;2024-02-21T05:13:12;97974.59;;;5.63;79.02
84310;BME280;74488;49.036;11.472;2024-02-21T05:14:14;97991.16;;;5.69;78.93
84310;BME280;74488;49.036;11.472;2024-02-21T05:15:16;97986.75;;;5.70;78.50
84310;BME280;74488;49.036;11.472;2024-02-21T05:16:17;97987.56;;;5.70;78.70
84310;BME280;74488;49.036;11.472;2024-02-21T05:17:21;97985.03;;;5.67;78.87
84310;BME280;74488;49.036;11.472;2024-02-21T05:18:22;97978.06;;;5.65;78.98
84310;BME280;74488;49.036;11.472;2024-02-21T05:19:24;97991.25;;;5.66;79.13
84310;BME280;74488;49.036;11.472;2024-02-21T05:20:26;97982.63;;;5.61;79.24
84310;BME280;74488;49.036;11.472;2024-02-21T05:21:28;97980.09;;;5.57;79.68
84310;BME280;74488;49.036;11.472;2024-02-21T05:22:29;97978.38;;;5.56;79.87
84310;BME280;74488;49.036;11.472;2024-02-21T05:23:31;97981.94;;;5.55;79.63
84310;BME280;74488;49.036;11.472;2024-02-21T05:24:33;97978.41;;;5.54;79.60
84310;BME280;74488;49.036;11.472;2024-02-21T05:25:34;97975.88;;;5.51;79.80
84310;BME280;74488;49.036;11.472;2024-02-21T05:26:36;97975.78;;;5.54;78.98
84310;BME280;74488;49.036;11.472;2024-02-21T05:27:37;97970.78;;;5.45;80.05